Terminal Aerodrome Forecast
Issued by NWS

Home | Current Version | Previous Version | Text Only | Print | Product List | Glossary On
Versions: 1 2 3 4 5 6 7 8 9 10 11 12 13 14 15 16
000
FTUS41 KCAR 022320
TAFHUL
TAF
KHUL 022320Z 0300/0324 26008KT P6SM FEW070
     FM030900 23005KT P6SM BKN050
     FM031800 27012KT P6SM FEW050 SCT250=

USA.gov is the U.S. government's official web portal to all federal, state and local government web resources and services.